Time;durP1;ratioP1;P1;durP2;ratioP2;P2;SDS_P1;SDS_P2;PMS_P1;PMS_P2;Temp;Humidity;BMP_temperature;BMP_pressure;BME280_temperature;BME280_humidity;BME280_pressure;Samples;Min_cycle;Max_cycle;Signal;HPM_P1;HPM_P2
2022/11/30 00:00:09;;;;;;;14.68;7.00;;;9.40;99.90;;;;;;10103105;28;20521;-60
2022/11/30 00:05:00;;;;;;;11.48;6.30;;;9.40;99.90;;;;;;10097736;28;20558;-62
2022/11/30 00:09:51;;;;;;;19.35;7.68;;;9.30;99.90;;;;;;10099755;28;20436;-63
2022/11/30 00:14:41;;;;;;;17.60;7.75;;;9.30;99.90;;;;;;10093191;28;20036;-62
2022/11/30 00:19:32;;;;;;;14.70;6.88;;;9.30;99.90;;;;;;10106822;28;20430;-64
2022/11/30 00:24:22;;;;;;;18.92;9.05;;;9.30;99.90;;;;;;10102169;28;20057;-63
2022/11/30 00:29:13;;;;;;;15.38;7.93;;;9.30;99.90;;;;;;10095073;28;20021;-62
2022/11/30 00:34:04;;;;;;;13.80;6.97;;;9.20;99.90;;;;;;10099816;28;20060;-60
2022/11/30 00:38:54;;;;;;;13.00;6.75;;;9.30;99.90;;;;;;10090646;28;20029;-62
2022/11/30 00:43:45;;;;;;;17.58;7.85;;;9.30;99.90;;;;;;10099269;28;20246;-61
2022/11/30 00:48:37;;;;;;;13.68;6.78;;;9.30;99.90;;;;;;10094077;28;20032;-62
2022/11/30 00:53:28;;;;;;;15.68;7.07;;;9.30;99.90;;;;;;10101230;28;20071;-62
2022/11/30 00:58:19;;;;;;;15.80;8.95;;;9.30;99.90;;;;;;10101210;28;20491;-60
2022/11/30 01:03:10;;;;;;;16.95;7.75;;;9.30;99.90;;;;;;10091617;28;20533;-62
2022/11/30 01:08:02;;;;;;;21.13;10.05;;;9.30;99.90;;;;;;10092954;28;20037;-62
2022/11/30 01:12:53;;;;;;;20.98;8.25;;;9.20;99.90;;;;;;10096448;28;20078;-61
2022/11/30 01:17:44;;;;;;;23.95;8.30;;;9.10;99.90;;;;;;10091356;28;20406;-61
2022/11/30 01:22:34;;;;;;;17.33;8.50;;;9.10;99.90;;;;;;10100178;28;20041;-62
2022/11/30 01:27:25;;;;;;;19.90;9.05;;;9.00;99.90;;;;;;10088966;28;20025;-62
2022/11/30 01:32:15;;;;;;;17.63;8.18;;;9.00;99.90;;;;;;10090915;28;20058;-61
2022/11/30 01:37:06;;;;;;;16.42;6.88;;;9.00;99.90;;;;;;10105019;28;20039;-65
2022/11/30 01:41:57;;;;;;;20.98;8.43;;;9.00;99.90;;;;;;10087972;28;20388;-63
2022/11/30 01:46:58;;;;;;;17.25;8.40;;;9.00;99.90;;;;;;10101510;28;20083;-64
2022/11/30 01:51:58;;;;;;;18.15;6.35;;;9.00;99.90;;;;;;10087994;28;20516;-64
2022/11/30 01:56:54;;;;;;;17.05;8.80;;;8.90;99.90;;;;;;10139624;22;20584;-65
2022/11/30 02:01:45;;;;;;;15.60;6.88;;;9.00;99.90;;;;;;10132008;28;20410;-65
2022/11/30 02:06:36;;;;;;;21.25;8.15;;;8.90;99.90;;;;;;10129488;28;20487;-65
2022/11/30 02:11:27;;;;;;;13.73;6.88;;;8.90;99.90;;;;;;10129767;28;20021;-66
2022/11/30 02:16:52;;;;;;;16.48;6.05;;;8.90;99.90;;;;;;10123016;28;20028;-65
2022/11/30 02:22:04;;;;;;;15.88;7.55;;;8.90;99.90;;;;;;10133892;28;20098;-66
2022/11/30 02:27:10;;;;;;;20.42;7.57;;;8.90;99.90;;;;;;10132040;28;20035;-66
2022/11/30 02:32:20;;;;;;;20.45;7.80;;;8.90;99.90;;;;;;10141418;28;20059;-67
2022/11/30 02:37:13;;;;;;;21.65;7.97;;;8.80;99.90;;;;;;10132975;28;20032;-63
2022/11/30 02:42:09;;;;;;;17.88;6.72;;;8.80;99.90;;;;;;10135029;28;20505;-64
2022/11/30 02:47:17;;;;;;;13.38;6.68;;;8.80;99.90;;;;;;10140817;28;20024;-64
2022/11/30 02:52:10;;;;;;;15.40;7.32;;;8.80;99.90;;;;;;10131734;28;20056;-62
2022/11/30 02:57:00;;;;;;;17.25;6.82;;;8.80;99.90;;;;;;10127528;28;20063;-65
2022/11/30 03:01:51;;;;;;;15.85;5.97;;;8.90;99.90;;;;;;10126027;28;20071;-64
2022/11/30 03:06:42;;;;;;;16.38;7.72;;;8.80;99.90;;;;;;10135250;28;20565;-64
2022/11/30 03:11:33;;;;;;;16.42;7.97;;;8.80;99.90;;;;;;10135825;28;20016;-65
2022/11/30 03:16:23;;;;;;;19.63;8.25;;;8.80;99.90;;;;;;10131836;28;20410;-66
2022/11/30 03:21:14;;;;;;;27.13;7.72;;;8.80;99.90;;;;;;10129467;28;20048;-67
2022/11/30 03:26:07;;;;;;;20.23;7.88;;;8.80;99.90;;;;;;10136785;28;20089;-65
2022/11/30 03:30:57;;;;;;;20.23;9.38;;;8.80;99.90;;;;;;10119892;28;20067;-66
2022/11/30 03:35:48;;;;;;;16.73;7.70;;;8.80;99.90;;;;;;10133997;28;20040;-64
2022/11/30 03:40:38;;;;;;;20.25;8.38;;;8.80;99.90;;;;;;10145426;28;20075;-64
2022/11/30 03:45:29;;;;;;;18.17;7.38;;;8.70;99.90;;;;;;10132156;28;20033;-63
2022/11/30 03:50:20;;;;;;;15.77;6.43;;;8.70;99.90;;;;;;10145608;28;20399;-62
2022/11/30 03:55:11;;;;;;;15.63;6.07;;;8.70;99.90;;;;;;10144227;28;20189;-64
2022/11/30 04:00:04;;;;;;;20.08;8.27;;;8.70;99.90;;;;;;10134707;28;20494;-63
2022/11/30 04:04:55;;;;;;;10.35;6.43;;;8.70;99.90;;;;;;10133274;28;20020;-63
2022/11/30 04:09:46;;;;;;;17.23;7.07;;;8.80;99.90;;;;;;10126495;28;20044;-61
2022/11/30 04:14:36;;;;;;;16.10;6.43;;;8.80;99.90;;;;;;10134239;28;20017;-63
2022/11/30 04:19:27;;;;;;;18.27;6.53;;;8.80;99.90;;;;;;10136507;28;20449;-64
2022/11/30 04:24:17;;;;;;;18.63;7.47;;;8.80;99.90;;;;;;10139757;28;20025;-63
2022/11/30 04:29:08;;;;;;;16.80;6.57;;;8.80;99.90;;;;;;10136790;28;20058;-65
2022/11/30 04:33:59;;;;;;;24.20;7.80;;;8.80;99.90;;;;;;10135511;28;20041;-63
2022/11/30 04:38:49;;;;;;;18.08;6.80;;;8.80;99.90;;;;;;10131083;28;20025;-64
2022/11/30 04:43:40;;;;;;;19.98;6.95;;;8.70;99.90;;;;;;10133533;28;20502;-66
2022/11/30 04:48:30;;;;;;;19.30;8.32;;;8.70;99.90;;;;;;10132726;28;20032;-66
2022/11/30 04:53:21;;;;;;;16.20;6.63;;;8.70;99.90;;;;;;10133673;28;20036;-62
2022/11/30 04:58:12;;;;;;;22.08;7.05;;;8.70;99.90;;;;;;10130523;28;20047;-66
2022/11/30 05:03:02;;;;;;;21.85;7.50;;;8.70;99.90;;;;;;10134982;28;20060;-64
2022/11/30 05:07:58;;;;;;;15.43;8.40;;;8.70;99.90;;;;;;10139235;28;20413;-64
2022/11/30 05:12:49;;;;;;;19.98;6.10;;;8.80;99.90;;;;;;10127715;28;20076;-61
2022/11/30 05:17:39;;;;;;;23.25;8.70;;;8.80;99.90;;;;;;10132869;28;20120;-62
2022/11/30 05:22:30;;;;;;;19.02;6.45;;;8.70;99.90;;;;;;10127568;28;20801;-65
2022/11/30 05:27:20;;;;;;;15.68;7.18;;;8.70;99.90;;;;;;10130953;28;20024;-66
2022/11/30 05:32:11;;;;;;;21.50;7.72;;;8.60;99.90;;;;;;10133540;28;20087;-66
2022/11/30 05:37:02;;;;;;;17.95;6.38;;;8.70;99.90;;;;;;10140757;28;20024;-66
2022/11/30 05:41:53;;;;;;;18.58;7.80;;;8.70;99.90;;;;;;10141813;28;20051;-64
2022/11/30 05:46:43;;;;;;;19.00;7.88;;;8.60;99.90;;;;;;10122977;28;20032;-65
2022/11/30 05:51:34;;;;;;;17.77;7.32;;;8.60;99.90;;;;;;10137151;28;20063;-65
2022/11/30 05:56:24;;;;;;;18.35;8.13;;;8.60;99.90;;;;;;10126325;28;20051;-63
2022/11/30 06:01:26;;;;;;;18.98;7.55;;;8.60;99.90;;;;;;10128952;28;20041;-64
2022/11/30 06:06:18;;;;;;;20.80;9.35;;;8.60;99.90;;;;;;10122670;28;20576;-66
2022/11/30 06:11:09;;;;;;;24.52;8.18;;;8.50;99.90;;;;;;10116799;28;20156;-67
2022/11/30 06:16:01;;;;;;;23.73;9.43;;;8.50;99.90;;;;;;10129578;28;20024;-66
2022/11/30 06:20:52;;;;;;;16.38;7.68;;;8.50;99.90;;;;;;10142347;28;20040;-65
2022/11/30 06:25:42;;;;;;;17.00;8.73;;;8.50;99.90;;;;;;10132797;28;20025;-65
2022/11/30 06:30:33;;;;;;;15.68;7.18;;;8.50;99.90;;;;;;10147292;28;20039;-66
2022/11/30 06:35:24;;;;;;;22.05;9.60;;;8.50;99.90;;;;;;10134818;28;20028;-62
2022/11/30 06:40:15;;;;;;;16.52;8.07;;;8.50;99.90;;;;;;10130282;28;20060;-62
2022/11/30 06:45:07;;;;;;;23.40;8.50;;;8.50;99.90;;;;;;10125926;28;20032;-63
2022/11/30 06:49:57;;;;;;;17.92;7.68;;;8.40;99.90;;;;;;10132921;28;20115;-63
2022/11/30 06:54:48;;;;;;;19.15;8.80;;;8.50;99.90;;;;;;10135093;28;20473;-62
2022/11/30 06:59:42;;;;;;;24.60;8.82;;;8.50;99.90;;;;;;10143522;28;20032;-66
2022/11/30 07:04:32;;;;;;;20.45;8.98;;;8.50;99.90;;;;;;10133530;28;20237;-63
2022/11/30 07:09:23;;;;;;;21.90;8.88;;;8.50;99.90;;;;;;10132241;28;20094;-62
2022/11/30 07:14:14;;;;;;;16.50;9.05;;;8.60;99.90;;;;;;10135948;28;20064;-62
2022/11/30 07:19:04;;;;;;;21.27;9.35;;;8.50;99.90;;;;;;10138253;28;20039;-62
2022/11/30 07:29:04;;;;;;;17.55;7.45;;;8.50;99.90;;;;;;10137401;28;20098;-65
2022/11/30 07:33:56;;;;;;;20.98;8.30;;;8.50;99.90;;;;;;10141452;28;20055;-65
2022/11/30 07:38:47;;;;;;;22.02;10.52;;;8.50;99.90;;;;;;10130733;28;20416;-64
2022/11/30 07:43:39;;;;;;;18.60;8.63;;;8.60;99.90;;;;;;10131364;28;20071;-65
2022/11/30 07:48:30;;;;;;;20.23;8.95;;;8.60;99.90;;;;;;10134400;28;20048;-64
2022/11/30 07:53:21;;;;;;;20.63;8.45;;;8.60;99.90;;;;;;10132049;28;20040;-64
2022/11/30 07:58:11;;;;;;;29.45;10.27;;;8.60;99.90;;;;;;10131139;28;20036;-64
2022/11/30 08:03:03;;;;;;;18.52;8.50;;;8.60;99.90;;;;;;10129864;28;20032;-63
2022/11/30 08:07:53;;;;;;;17.65;7.82;;;8.70;99.90;;;;;;10128433;28;20391;-65
2022/11/30 08:12:44;;;;;;;14.75;8.15;;;8.70;99.90;;;;;;10127477;28;20090;-65
2022/11/30 08:17:35;;;;;;;21.75;8.70;;;8.70;99.90;;;;;;10107159;28;20512;-65
2022/11/30 08:22:25;;;;;;;19.17;8.25;;;8.70;99.90;;;;;;10124875;28;20036;-64
2022/11/30 08:27:16;;;;;;;17.02;7.30;;;8.70;99.90;;;;;;10124446;28;20020;-63
2022/11/30 08:32:07;;;;;;;20.63;8.13;;;8.70;99.90;;;;;;10124678;28;20017;-64
2022/11/30 08:36:57;;;;;;;16.17;7.35;;;8.70;99.90;;;;;;10126873;28;20188;-64
2022/11/30 08:41:48;;;;;;;22.63;8.00;;;8.70;99.90;;;;;;10126456;28;20032;-63
2022/11/30 08:46:39;;;;;;;20.08;7.63;;;8.70;99.90;;;;;;10125930;28;20433;-63
2022/11/30 08:51:30;;;;;;;20.77;8.90;;;8.60;99.90;;;;;;10126789;28;20020;-64
2022/11/30 08:56:23;;;;;;;22.85;7.35;;;8.70;99.90;;;;;;10139064;28;20299;-65
2022/11/30 09:01:25;;;;;;;24.67;8.60;;;8.80;99.90;;;;;;10127213;28;20035;-63
2022/11/30 09:06:24;;;;;;;21.17;8.25;;;8.90;99.90;;;;;;10131306;28;20429;-64
2022/11/30 09:11:21;;;;;;;18.50;7.53;;;8.90;99.90;;;;;;10131701;28;20115;-65
2022/11/30 09:16:13;;;;;;;23.00;9.65;;;8.90;99.90;;;;;;10132633;28;20033;-64
2022/11/30 09:21:07;;;;;;;17.33;8.30;;;9.00;99.90;;;;;;10133734;28;20048;-63
2022/11/30 09:26:00;;;;;;;21.20;7.88;;;8.90;99.90;;;;;;10130736;28;20040;-61
2022/11/30 09:30:52;;;;;;;19.20;7.55;;;8.90;99.90;;;;;;10133724;28;20141;-62
2022/11/30 09:35:42;;;;;;;20.10;8.27;;;9.00;99.90;;;;;;10139410;28;20028;-62
2022/11/30 09:40:37;;;;;;;19.50;7.40;;;9.10;99.90;;;;;;10112063;28;20063;-62
2022/11/30 09:45:32;;;;;;;13.45;6.97;;;9.20;99.90;;;;;;10126071;28;20032;-62
2022/11/30 09:50:27;;;;;;;21.13;7.33;;;9.20;99.90;;;;;;10125897;28;20025;-62
2022/11/30 09:55:38;;;;;;;17.58;7.03;;;9.30;99.90;;;;;;10126979;28;20044;-62
2022/11/30 10:00:29;;;;;;;12.43;6.90;;;9.40;99.90;;;;;;10131053;28;20036;-63
2022/11/30 10:05:44;;;;;;;11.80;7.25;;;9.50;99.90;;;;;;10126726;28;20035;-61
2022/11/30 10:10:57;;;;;;;11.50;5.63;;;9.50;99.90;;;;;;10127650;28;20064;-63
2022/11/30 10:15:53;;;;;;;12.05;7.47;;;9.60;99.90;;;;;;10125079;28;20012;-64
2022/11/30 10:20:43;;;;;;;11.23;6.63;;;9.60;99.90;;;;;;10108624;28;20032;-68
2022/11/30 10:25:56;;;;;;;10.32;5.65;;;9.60;99.90;;;;;;10124132;28;20287;-63
2022/11/30 10:30:48;;;;;;;12.73;5.60;;;9.70;99.90;;;;;;10132000;28;20040;-66
2022/11/30 10:35:51;;;;;;;11.18;5.50;;;9.70;99.90;;;;;;10112589;28;20044;-65
2022/11/30 10:41:04;;;;;;;10.02;5.90;;;9.70;99.90;;;;;;10123094;28;20028;-64
2022/11/30 10:45:55;;;;;;;9.48;5.78;;;9.90;99.90;;;;;;10124133;28;20123;-64
2022/11/30 10:50:46;;;;;;;8.95;4.82;;;9.90;99.90;;;;;;10125138;28;20028;-64
2022/11/30 10:55:44;;;;;;;11.52;6.85;;;9.90;99.90;;;;;;10125213;28;21730;-66
2022/11/30 11:00:35;;;;;;;9.88;4.57;;;9.90;99.90;;;;;;10126993;28;20039;-64
2022/11/30 11:05:30;;;;;;;10.02;4.63;;;9.80;99.90;;;;;;10126707;28;20391;-62
2022/11/30 11:10:29;;;;;;;7.83;4.30;;;9.80;99.90;;;;;;10135926;28;20066;-64
2022/11/30 11:15:27;;;;;;;9.48;4.10;;;9.70;99.90;;;;;;10122207;28;20082;-65
2022/11/30 11:20:32;;;;;;;8.98;5.22;;;9.60;99.90;;;;;;10123596;28;20033;-61
2022/11/30 11:25:33;;;;;;;6.30;4.03;;;9.80;99.90;;;;;;10130587;28;20577;-67
2022/11/30 11:30:24;;;;;;;7.43;3.67;;;9.80;99.90;;;;;;10138340;28;20437;-65
2022/11/30 11:35:37;;;;;;;5.95;3.85;;;9.80;99.90;;;;;;10113164;28;20028;-67
2022/11/30 11:40:28;;;;;;;6.78;4.20;;;9.80;99.90;;;;;;10110825;28;20092;-67
2022/11/30 11:45:28;;;;;;;7.10;4.15;;;9.80;99.90;;;;;;10138498;28;20099;-65
2022/11/30 11:50:38;;;;;;;4.57;3.08;;;9.90;99.90;;;;;;10111317;28;20148;-65
2022/11/30 11:55:28;;;;;;;8.57;4.47;;;9.80;99.90;;;;;;10132463;28;20114;-64
2022/11/30 12:00:23;;;;;;;8.13;4.35;;;9.80;99.90;;;;;;10135021;28;20577;-65
2022/11/30 12:05:27;;;;;;;5.33;3.83;;;9.90;99.90;;;;;;10132163;28;20035;-64
2022/11/30 12:10:27;;;;;;;8.27;4.47;;;9.80;99.90;;;;;;10130289;28;20289;-66
2022/11/30 12:15:22;;;;;;;6.78;3.25;;;9.90;99.90;;;;;;10128521;28;20481;-63
2022/11/30 12:20:45;;;;;;;5.43;3.30;;;9.80;99.90;;;;;;10132988;28;20028;-64
2022/11/30 12:25:48;;;;;;;5.68;3.65;;;9.70;99.90;;;;;;10119997;28;20288;-64
2022/11/30 12:30:55;;;;;;;12.38;6.85;;;9.70;99.90;;;;;;10128611;28;20032;-65
2022/11/30 12:36:20;;;;;;;6.47;4.00;;;9.80;99.90;;;;;;10130315;28;20047;-62
2022/11/30 12:41:29;;;;;;;5.80;4.10;;;9.80;99.90;;;;;;10137549;28;20101;-63
2022/11/30 12:46:37;;;;;;;7.95;4.53;;;9.80;99.90;;;;;;10125898;28;20028;-66
2022/11/30 12:51:34;;;;;;;6.22;3.78;;;9.80;99.90;;;;;;10127738;28;20524;-69
2022/11/30 12:56:30;;;;;;;5.72;3.92;;;9.80;99.90;;;;;;10124715;28;20098;-64
2022/11/30 13:01:39;;;;;;;6.80;3.83;;;9.80;99.90;;;;;;10122507;28;20028;-64
2022/11/30 13:06:39;;;;;;;5.70;3.30;;;9.70;99.90;;;;;;10122565;28;20028;-63
2022/11/30 13:11:38;;;;;;;6.65;3.75;;;9.70;99.90;;;;;;10121185;28;20036;-62
2022/11/30 13:16:31;;;;;;;6.28;4.00;;;9.70;99.90;;;;;;10123802;28;20029;-65
2022/11/30 13:21:38;;;;;;;5.43;3.25;;;9.70;99.90;;;;;;10106086;28;20040;-59
2022/11/30 13:26:50;;;;;;;9.27;4.25;;;9.70;99.90;;;;;;10121880;28;20055;-60
2022/11/30 13:31:47;;;;;;;6.03;3.67;;;9.60;99.90;;;;;;10121971;28;20062;-62
2022/11/30 13:36:40;;;;;;;5.93;3.42;;;9.60;99.90;;;;;;10130657;28;20021;-60
2022/11/30 13:41:31;;;;;;;3.95;3.25;;;9.50;99.90;;;;;;10130480;28;20028;-60
2022/11/30 13:46:22;;;;;;;7.28;4.15;;;9.50;99.90;;;;;;10129233;28;20028;-61
2022/11/30 13:51:34;;;;;;;5.38;3.33;;;9.70;99.90;;;;;;10131970;28;20020;-63
2022/11/30 13:56:33;;;;;;;5.22;3.85;;;9.60;99.90;;;;;;10128976;28;20119;-61
2022/11/30 14:01:26;;;;;;;6.82;3.85;;;9.60;99.90;;;;;;10128924;28;20044;-60
2022/11/30 14:06:40;;;;;;;6.93;3.08;;;9.60;99.90;;;;;;10129358;28;20036;-62
2022/11/30 14:11:39;;;;;;;6.20;3.97;;;9.60;99.90;;;;;;10131137;28;20081;-60
2022/11/30 14:16:30;;;;;;;5.65;3.85;;;9.70;99.90;;;;;;10124338;28;20087;-62
2022/11/30 14:21:35;;;;;;;6.68;3.58;;;9.70;99.90;;;;;;10111109;28;20568;-61
2022/11/30 14:26:43;;;;;;;6.18;4.13;;;9.60;99.90;;;;;;10127610;28;20052;-61
2022/11/30 14:31:56;;;;;;;7.93;4.78;;;9.60;99.90;;;;;;10122437;28;20540;-62
2022/11/30 14:37:03;;;;;;;5.68;3.38;;;9.60;99.90;;;;;;10126899;28;21260;-62
2022/11/30 14:41:54;;;;;;;8.90;4.25;;;9.50;99.90;;;;;;10124718;28;20036;-60
2022/11/30 14:46:45;;;;;;;6.70;4.32;;;9.50;99.90;;;;;;10127008;28;20028;-61
2022/11/30 14:51:37;;;;;;;6.78;4.20;;;9.50;99.90;;;;;;10124450;28;20036;-62
2022/11/30 14:56:46;;;;;;;7.25;4.25;;;9.50;99.90;;;;;;10125881;28;20049;-62
2022/11/30 15:01:38;;;;;;;9.30;4.53;;;9.40;99.90;;;;;;10130268;28;20106;-60
2022/11/30 15:06:32;;;;;;;8.98;6.10;;;9.30;99.90;;;;;;10127323;28;20063;-68
2022/11/30 15:11:23;;;;;;;7.88;4.95;;;9.30;99.90;;;;;;10127901;28;20480;-62
2022/11/30 15:16:27;;;;;;;8.52;5.68;;;9.50;99.90;;;;;;10131337;28;20032;-63
2022/11/30 15:21:23;;;;;;;6.60;4.90;;;9.30;99.90;;;;;;10132031;28;20024;-61
2022/11/30 15:26:43;;;;;;;8.65;3.95;;;9.30;99.90;;;;;;10136107;28;20502;-63
2022/11/30 15:31:37;;;;;;;7.90;4.80;;;9.20;99.90;;;;;;10128289;28;20058;-61
2022/11/30 15:36:38;;;;;;;8.90;4.85;;;9.20;99.90;;;;;;10134540;28;20058;-61
2022/11/30 15:41:30;;;;;;;7.45;4.22;;;9.20;99.90;;;;;;10132402;28;20044;-62
2022/11/30 15:46:32;;;;;;;10.02;5.30;;;9.20;99.90;;;;;;10118673;28;20502;-62
2022/11/30 15:51:23;;;;;;;8.90;4.15;;;9.20;99.90;;;;;;10132185;28;20028;-62
2022/11/30 15:56:25;;;;;;;8.63;4.00;;;9.30;99.90;;;;;;10131593;28;20052;-61
2022/11/30 16:01:23;;;;;;;7.57;3.92;;;9.20;99.90;;;;;;10131493;28;20038;-64
2022/11/30 16:06:18;;;;;;;6.05;3.83;;;9.20;99.90;;;;;;10133821;28;20036;-62
2022/11/30 16:11:10;;;;;;;9.13;5.17;;;9.20;99.90;;;;;;10140304;28;20326;-63
2022/11/30 16:16:01;;;;;;;9.75;5.93;;;9.20;99.90;;;;;;10135524;28;20043;-66
2022/11/30 16:21:00;;;;;;;6.20;4.10;;;9.20;99.90;;;;;;10138895;28;20067;-62
2022/11/30 16:25:51;;;;;;;8.77;5.35;;;9.10;99.90;;;;;;10127787;28;20164;-61
2022/11/30 16:30:43;;;;;;;12.02;6.15;;;9.10;99.90;;;;;;10131423;28;20036;-62
2022/11/30 16:35:54;;;;;;;9.38;5.38;;;9.20;99.90;;;;;;10115111;28;20028;-61
2022/11/30 16:40:45;;;;;;;9.95;6.05;;;9.20;99.90;;;;;;10137967;28;20449;-62
2022/11/30 16:45:37;;;;;;;9.02;5.57;;;9.10;99.90;;;;;;10110151;28;20420;-62
2022/11/30 16:50:28;;;;;;;10.07;5.13;;;9.00;99.90;;;;;;10129844;28;20093;-61
2022/11/30 16:55:21;;;;;;;10.75;6.10;;;9.00;99.90;;;;;;10141552;28;20075;-60
2022/11/30 17:00:14;;;;;;;13.52;6.05;;;9.00;99.90;;;;;;10126279;28;20071;-60
2022/11/30 17:05:05;;;;;;;9.18;4.82;;;9.00;99.90;;;;;;10112638;28;20087;-61
2022/11/30 17:09:56;;;;;;;12.70;6.18;;;9.00;99.90;;;;;;10130654;28;20032;-60
2022/11/30 17:14:47;;;;;;;10.68;6.10;;;9.00;99.90;;;;;;10126175;28;20035;-63
2022/11/30 17:19:37;;;;;;;11.35;5.97;;;9.00;99.90;;;;;;10102779;28;20031;-62
2022/11/30 17:24:28;;;;;;;11.70;6.63;;;9.00;99.90;;;;;;10118761;28;20464;-62
2022/11/30 17:29:18;;;;;;;10.60;6.28;;;9.00;99.90;;;;;;10125428;28;20027;-62
2022/11/30 17:34:09;;;;;;;12.88;6.18;;;8.90;99.90;;;;;;10120445;28;20031;-61
2022/11/30 17:39:07;;;;;;;11.57;6.03;;;9.00;99.90;;;;;;10123377;28;20256;-62
2022/11/30 17:43:57;;;;;;;13.48;6.25;;;9.00;99.90;;;;;;10129780;28;20036;-65
2022/11/30 17:48:48;;;;;;;15.02;5.80;;;9.00;99.90;;;;;;10144465;28;20016;-62
2022/11/30 17:53:40;;;;;;;10.85;6.07;;;9.00;99.90;;;;;;10134389;28;20059;-63
2022/11/30 17:58:31;;;;;;;12.15;5.78;;;8.90;99.90;;;;;;10131362;28;20035;-63
2022/11/30 18:03:22;;;;;;;9.57;5.50;;;8.90;99.90;;;;;;10129156;28;20045;-62
2022/11/30 18:08:13;;;;;;;13.95;6.65;;;8.90;99.90;;;;;;10122502;28;20025;-62
2022/11/30 18:13:04;;;;;;;14.35;6.88;;;8.90;99.90;;;;;;10132075;28;20028;-62
2022/11/30 18:17:59;;;;;;;10.90;6.10;;;8.90;99.90;;;;;;10139239;28;20025;-64
2022/11/30 18:22:50;;;;;;;9.80;5.82;;;8.80;99.90;;;;;;10144920;28;20048;-63
2022/11/30 18:27:40;;;;;;;10.65;5.55;;;8.90;99.90;;;;;;10131062;28;20033;-63
2022/11/30 18:32:31;;;;;;;11.00;5.97;;;8.90;99.90;;;;;;10131835;28;20032;-62
2022/11/30 18:37:22;;;;;;;10.85;5.60;;;8.90;99.90;;;;;;10135899;28;20033;-63
2022/11/30 18:42:12;;;;;;;11.93;5.93;;;8.90;99.90;;;;;;10136035;28;20057;-62
2022/11/30 18:47:03;;;;;;;10.45;5.43;;;8.90;99.90;;;;;;10123656;28;20047;-63
2022/11/30 18:51:54;;;;;;;14.23;7.32;;;8.90;99.90;;;;;;10135485;28;20032;-63
2022/11/30 18:56:45;;;;;;;10.55;5.65;;;9.00;99.90;;;;;;10135420;28;20052;-62
2022/11/30 19:01:36;;;;;;;12.68;6.22;;;8.90;99.90;;;;;;10147732;28;20119;-62
2022/11/30 19:06:28;;;;;;;15.98;8.27;;;8.90;99.90;;;;;;10141126;28;20063;-63
2022/11/30 19:11:19;;;;;;;12.43;7.13;;;8.90;99.90;;;;;;10140749;28;20047;-63
2022/11/30 19:16:15;;;;;;;13.07;7.07;;;8.90;99.90;;;;;;10138032;28;20540;-64
2022/11/30 19:21:08;;;;;;;14.77;6.72;;;8.90;99.90;;;;;;10125722;28;20555;-63
2022/11/30 19:26:00;;;;;;;13.23;6.70;;;8.90;99.90;;;;;;10136499;28;20024;-64
2022/11/30 19:30:51;;;;;;;14.65;7.05;;;8.80;99.90;;;;;;10140082;28;20139;-63
2022/11/30 19:35:41;;;;;;;11.07;6.20;;;8.80;99.90;;;;;;10133084;28;21315;-64
2022/11/30 19:40:32;;;;;;;10.63;6.75;;;8.80;99.90;;;;;;10136957;28;20078;-64
2022/11/30 19:45:23;;;;;;;12.20;6.88;;;8.80;99.90;;;;;;10140428;28;20060;-63
2022/11/30 19:50:13;;;;;;;13.80;6.60;;;8.80;99.90;;;;;;10136831;28;20032;-63
2022/11/30 19:55:05;;;;;;;10.75;7.28;;;8.80;99.90;;;;;;10131938;28;20048;-62
2022/11/30 19:59:55;;;;;;;11.73;6.85;;;8.80;99.90;;;;;;10116352;28;20032;-62
2022/11/30 20:04:46;;;;;;;12.10;6.47;;;8.80;99.90;;;;;;10115594;28;20118;-61
2022/11/30 20:09:37;;;;;;;14.00;7.30;;;8.80;99.90;;;;;;10137995;28;20027;-63
2022/11/30 20:14:27;;;;;;;11.90;5.65;;;8.80;99.90;;;;;;10136853;28;20453;-63
2022/11/30 20:19:18;;;;;;;9.90;6.43;;;8.80;99.90;;;;;;10118383;28;20039;-63
2022/11/30 20:24:10;;;;;;;11.57;5.75;;;8.80;99.90;;;;;;10138490;28;20048;-63
2022/11/30 20:29:03;;;;;;;13.57;6.88;;;8.80;99.90;;;;;;10126835;28;20063;-63
2022/11/30 20:33:54;;;;;;;13.57;6.50;;;8.70;99.90;;;;;;10138740;28;20025;-63
2022/11/30 20:38:45;;;;;;;11.82;5.88;;;8.80;99.90;;;;;;10147899;28;20918;-63
2022/11/30 20:43:36;;;;;;;11.10;5.63;;;8.70;99.90;;;;;;10130403;28;20062;-63
2022/11/30 20:48:27;;;;;;;9.07;5.53;;;8.80;99.90;;;;;;10142584;28;20506;-63
2022/11/30 20:53:18;;;;;;;10.85;6.70;;;8.70;99.90;;;;;;10145950;28;20040;-63
2022/11/30 20:58:09;;;;;;;11.50;5.53;;;8.70;99.90;;;;;;10144856;28;20032;-64
2022/11/30 21:02:59;;;;;;;12.05;6.55;;;8.70;99.90;;;;;;10137391;28;20406;-64
2022/11/30 21:07:50;;;;;;;12.15;6.15;;;8.70;99.90;;;;;;10135409;28;20033;-63
2022/11/30 21:12:41;;;;;;;13.45;6.43;;;8.60;99.90;;;;;;10131239;28;20028;-63
2022/11/30 21:17:32;;;;;;;16.05;6.20;;;8.50;99.90;;;;;;10134462;28;20028;-64
2022/11/30 21:22:24;;;;;;;13.57;5.57;;;8.60;99.90;;;;;;10133049;28;20047;-61
2022/11/30 21:27:15;;;;;;;12.65;6.18;;;8.50;99.90;;;;;;10130643;28;20405;-63
2022/11/30 21:32:06;;;;;;;11.90;6.03;;;8.50;99.90;;;;;;10130021;28;20051;-64
2022/11/30 21:36:57;;;;;;;11.27;5.88;;;8.40;99.90;;;;;;10108732;28;20065;-65
2022/11/30 21:41:47;;;;;;;10.27;5.18;;;8.40;99.90;;;;;;10126181;28;20076;-62
2022/11/30 21:46:38;;;;;;;13.48;5.93;;;8.40;99.90;;;;;;10126726;28;20035;-61
2022/11/30 21:51:33;;;;;;;15.32;7.25;;;8.40;99.90;;;;;;10126994;28;20028;-60
2022/11/30 21:56:26;;;;;;;10.27;5.88;;;8.30;99.90;;;;;;10115869;28;20417;-62
2022/11/30 22:01:23;;;;;;;12.27;5.57;;;8.30;99.90;;;;;;10116145;28;20132;-64
2022/11/30 22:06:16;;;;;;;11.90;5.82;;;8.30;99.90;;;;;;10119276;28;20068;-64
2022/11/30 22:11:12;;;;;;;12.10;5.55;;;8.30;99.90;;;;;;10122329;28;20075;-63
2022/11/30 22:16:04;;;;;;;;;;;8.30;99.90;;;;;;10127202;28;20044;-61
2022/11/30 22:21:08;;;;;;;10.20;5.15;;;8.30;99.90;;;;;;10122476;28;19954;-61
2022/11/30 22:26:18;;;;;;;9.82;4.43;;;8.20;99.90;;;;;;10119843;28;20044;-62
2022/11/30 22:31:11;;;;;;;11.52;5.40;;;8.10;99.90;;;;;;10122711;28;20256;-61
2022/11/30 22:36:02;;;;;;;12.50;5.07;;;8.00;99.90;;;;;;10131483;28;20027;-61
2022/11/30 22:40:53;;;;;;;9.82;4.22;;;8.00;99.90;;;;;;10111878;28;20033;-61
2022/11/30 22:45:44;;;;;;;6.88;3.38;;;7.90;99.90;;;;;;10122551;28;20036;-61
2022/11/30 22:50:34;;;;;;;8.48;4.18;;;7.90;99.90;;;;;;10128490;28;20575;-62
2022/11/30 22:55:25;;;;;;;8.45;4.15;;;7.90;99.90;;;;;;10131690;28;20411;-61
2022/11/30 23:00:16;;;;;;;11.70;3.90;;;7.80;99.90;;;;;;10131829;28;20021;-62
2022/11/30 23:05:07;;;;;;;7.93;3.78;;;7.90;99.90;;;;;;10130251;28;20044;-63
2022/11/30 23:09:57;;;;;;;9.05;3.30;;;7.90;99.90;;;;;;10133686;28;20505;-62
2022/11/30 23:14:48;;;;;;;9.48;4.35;;;7.90;99.90;;;;;;10135612;28;20433;-63
2022/11/30 23:19:38;;;;;;;9.27;4.25;;;7.80;99.90;;;;;;10133178;28;20025;-63
2022/11/30 23:24:29;;;;;;;7.20;3.33;;;7.80;99.90;;;;;;10124727;28;20563;-62
2022/11/30 23:29:20;;;;;;;5.80;3.45;;;7.70;99.90;;;;;;10130479;28;20085;-61
2022/11/30 23:34:14;;;;;;;5.72;3.13;;;7.70;99.90;;;;;;10135781;28;20029;-61
2022/11/30 23:39:14;;;;;;;8.77;4.57;;;7.70;99.90;;;;;;10137739;28;20025;-61
2022/11/30 23:44:06;;;;;;;7.10;4.00;;;7.60;99.90;;;;;;10131581;28;20036;-62
2022/11/30 23:48:56;;;;;;;9.60;4.43;;;7.50;99.90;;;;;;10139407;28;20099;-62
2022/11/30 23:53:47;;;;;;;9.48;5.32;;;7.40;99.90;;;;;;10135618;28;20127;-62
2022/11/30 23:58:41;;;;;;;11.65;5.28;;;7.40;99.90;;;;;;10147121;28;20028;-61
